sensor_id;sensor_type;location;lat;lon;timestamp;P1;durP1;ratioP1;P2;durP2;ratioP2
72684;SDS011;61365;52.162;4.500;2023-01-28T00:01:03;16.73;;;10.98;;
72684;SDS011;61365;52.162;4.500;2023-01-28T00:03:36;17.05;;;10.57;;
72684;SDS011;61365;52.162;4.500;2023-01-28T00:06:03;16.73;;;10.38;;
72684;SDS011;61365;52.162;4.500;2023-01-28T00:08:37;17.27;;;10.27;;
72684;SDS011;61365;52.162;4.500;2023-01-28T00:11:05;16.10;;;9.93;;
72684;SDS011;61365;52.162;4.500;2023-01-28T00:13:33;15.85;;;9.75;;
72684;SDS011;61365;52.162;4.500;2023-01-28T00:16:00;14.13;;;9.40;;
72684;SDS011;61365;52.162;4.500;2023-01-28T00:18:30;14.82;;;9.40;;
72684;SDS011;61365;52.162;4.500;2023-01-28T00:21:02;14.10;;;8.82;;
72684;SDS011;61365;52.162;4.500;2023-01-28T00:23:39;15.07;;;8.85;;
72684;SDS011;61365;52.162;4.500;2023-01-28T00:26:10;13.85;;;8.50;;
72684;SDS011;61365;52.162;4.500;2023-01-28T00:28:39;15.90;;;8.55;;
72684;SDS011;61365;52.162;4.500;2023-01-28T00:31:07;13.32;;;8.45;;
72684;SDS011;61365;52.162;4.500;2023-01-28T00:33:39;14.37;;;9.07;;
72684;SDS011;61365;52.162;4.500;2023-01-28T00:36:05;14.38;;;8.63;;
72684;SDS011;61365;52.162;4.500;2023-01-28T00:38:32;15.40;;;8.50;;
72684;SDS011;61365;52.162;4.500;2023-01-28T00:41:13;13.95;;;9.00;;
72684;SDS011;61365;52.162;4.500;2023-01-28T00:43:42;17.98;;;9.27;;
72684;SDS011;61365;52.162;4.500;2023-01-28T00:46:10;13.80;;;8.98;;
72684;SDS011;61365;52.162;4.500;2023-01-28T00:48:39;14.30;;;8.52;;
72684;SDS011;61365;52.162;4.500;2023-01-28T00:51:08;13.23;;;8.23;;
72684;SDS011;61365;52.162;4.500;2023-01-28T00:53:38;12.65;;;8.98;;
72684;SDS011;61365;52.162;4.500;2023-01-28T00:56:05;16.10;;;9.07;;
72684;SDS011;61365;52.162;4.500;2023-01-28T00:58:35;14.55;;;9.20;;
72684;SDS011;61365;52.162;4.500;2023-01-28T01:01:44;13.02;;;8.50;;
72684;SDS011;61365;52.162;4.500;2023-01-28T01:03:52;15.63;;;8.45;;
72684;SDS011;61365;52.162;4.500;2023-01-28T01:06:28;13.80;;;9.27;;
72684;SDS011;61365;52.162;4.500;2023-01-28T01:08:58;13.63;;;7.88;;
72684;SDS011;61365;52.162;4.500;2023-01-28T01:11:25;12.23;;;7.85;;
72684;SDS011;61365;52.162;4.500;2023-01-28T01:13:55;11.85;;;6.75;;
72684;SDS011;61365;52.162;4.500;2023-01-28T01:16:25;12.60;;;7.75;;
72684;SDS011;61365;52.162;4.500;2023-01-28T01:18:58;13.88;;;8.40;;
72684;SDS011;61365;52.162;4.500;2023-01-28T01:21:26;13.35;;;7.60;;
72684;SDS011;61365;52.162;4.500;2023-01-28T01:23:54;10.77;;;6.82;;
72684;SDS011;61365;52.162;4.500;2023-01-28T01:26:21;9.90;;;6.45;;
72684;SDS011;61365;52.162;4.500;2023-01-28T01:28:49;13.50;;;7.40;;
72684;SDS011;61365;52.162;4.500;2023-01-28T01:31:18;11.55;;;6.68;;
72684;SDS011;61365;52.162;4.500;2023-01-28T01:33:46;9.50;;;6.07;;
72684;SDS011;61365;52.162;4.500;2023-01-28T01:36:16;9.02;;;5.82;;
72684;SDS011;61365;52.162;4.500;2023-01-28T01:38:46;10.32;;;6.18;;
72684;SDS011;61365;52.162;4.500;2023-01-28T01:41:28;9.70;;;6.00;;
72684;SDS011;61365;52.162;4.500;2023-01-28T01:43:58;9.48;;;5.50;;
72684;SDS011;61365;52.162;4.500;2023-01-28T01:49:03;7.10;;;4.30;;
72684;SDS011;61365;52.162;4.500;2023-01-28T01:54:13;7.35;;;4.57;;
72684;SDS011;61365;52.162;4.500;2023-01-28T01:56:42;9.45;;;5.00;;
72684;SDS011;61365;52.162;4.500;2023-01-28T01:59:14;9.77;;;5.30;;
72684;SDS011;61365;52.162;4.500;2023-01-28T02:01:49;9.25;;;5.20;;
72684;SDS011;61365;52.162;4.500;2023-01-28T02:05:00;7.03;;;4.53;;
72684;SDS011;61365;52.162;4.500;2023-01-28T02:07:10;9.05;;;4.90;;
72684;SDS011;61365;52.162;4.500;2023-01-28T02:09:40;7.38;;;4.53;;
72684;SDS011;61365;52.162;4.500;2023-01-28T02:12:09;9.80;;;5.20;;
72684;SDS011;61365;52.162;4.500;2023-01-28T02:14:42;8.35;;;5.20;;
72684;SDS011;61365;52.162;4.500;2023-01-28T02:17:18;6.72;;;4.47;;
72684;SDS011;61365;52.162;4.500;2023-01-28T02:19:47;7.13;;;4.35;;
72684;SDS011;61365;52.162;4.500;2023-01-28T02:30:37;6.82;;;4.15;;
72684;SDS011;61365;52.162;4.500;2023-01-28T02:33:55;6.72;;;4.22;;
72684;SDS011;61365;52.162;4.500;2023-01-28T02:36:54;7.88;;;4.70;;
72684;SDS011;61365;52.162;4.500;2023-01-28T02:39:32;9.30;;;4.63;;
72684;SDS011;61365;52.162;4.500;2023-01-28T02:42:08;6.90;;;4.43;;
72684;SDS011;61365;52.162;4.500;2023-01-28T02:44:41;8.13;;;4.50;;
72684;SDS011;61365;52.162;4.500;2023-01-28T02:47:11;11.55;;;4.85;;
72684;SDS011;61365;52.162;4.500;2023-01-28T02:50:07;6.68;;;4.82;;
72684;SDS011;61365;52.162;4.500;2023-01-28T02:55:47;8.07;;;5.38;;
72684;SDS011;61365;52.162;4.500;2023-01-28T02:58:33;8.43;;;5.22;;
72684;SDS011;61365;52.162;4.500;2023-01-28T03:06:30;7.53;;;5.40;;
72684;SDS011;61365;52.162;4.500;2023-01-28T03:09:05;13.35;;;5.95;;
72684;SDS011;61365;52.162;4.500;2023-01-28T03:11:58;10.00;;;5.10;;
72684;SDS011;61365;52.162;4.500;2023-01-28T03:14:55;8.52;;;5.10;;
72684;SDS011;61365;52.162;4.500;2023-01-28T03:20:41;9.60;;;5.18;;
72684;SDS011;61365;52.162;4.500;2023-01-28T03:23:42;8.38;;;4.80;;
72684;SDS011;61365;52.162;4.500;2023-01-28T03:26:45;8.48;;;5.10;;
72684;SDS011;61365;52.162;4.500;2023-01-28T03:29:54;9.40;;;5.07;;
72684;SDS011;61365;52.162;4.500;2023-01-28T03:32:46;9.55;;;5.65;;
72684;SDS011;61365;52.162;4.500;2023-01-28T03:35:33;7.60;;;4.82;;
72684;SDS011;61365;52.162;4.500;2023-01-28T03:38:20;8.95;;;4.60;;
72684;SDS011;61365;52.162;4.500;2023-01-28T03:40:51;6.97;;;4.80;;
72684;SDS011;61365;52.162;4.500;2023-01-28T03:43:22;9.85;;;5.20;;
72684;SDS011;61365;52.162;4.500;2023-01-28T03:45:49;7.70;;;4.75;;
72684;SDS011;61365;52.162;4.500;2023-01-28T03:48:17;10.23;;;5.55;;
72684;SDS011;61365;52.162;4.500;2023-01-28T03:50:45;8.30;;;5.57;;
72684;SDS011;61365;52.162;4.500;2023-01-28T03:53:13;7.55;;;5.45;;
72684;SDS011;61365;52.162;4.500;2023-01-28T03:55:41;8.23;;;5.50;;
72684;SDS011;61365;52.162;4.500;2023-01-28T03:58:09;9.32;;;5.80;;
72684;SDS011;61365;52.162;4.500;2023-01-28T04:00:37;10.32;;;5.43;;
72684;SDS011;61365;52.162;4.500;2023-01-28T04:03:10;7.20;;;5.05;;
72684;SDS011;61365;52.162;4.500;2023-01-28T04:05:43;9.57;;;5.45;;
72684;SDS011;61365;52.162;4.500;2023-01-28T04:08:28;7.60;;;4.90;;
72684;SDS011;61365;52.162;4.500;2023-01-28T04:10:55;7.00;;;4.82;;
72684;SDS011;61365;52.162;4.500;2023-01-28T04:13:21;8.35;;;4.90;;
72684;SDS011;61365;52.162;4.500;2023-01-28T04:15:48;8.40;;;4.50;;
72684;SDS011;61365;52.162;4.500;2023-01-28T04:18:15;9.85;;;4.78;;
72684;SDS011;61365;52.162;4.500;2023-01-28T04:20:41;6.85;;;4.20;;
72684;SDS011;61365;52.162;4.500;2023-01-28T04:23:07;7.85;;;5.10;;
72684;SDS011;61365;52.162;4.500;2023-01-28T04:25:34;8.07;;;5.05;;
72684;SDS011;61365;52.162;4.500;2023-01-28T04:28:01;8.05;;;4.97;;
72684;SDS011;61365;52.162;4.500;2023-01-28T04:30:27;6.50;;;4.00;;
72684;SDS011;61365;52.162;4.500;2023-01-28T04:32:53;9.48;;;4.80;;
72684;SDS011;61365;52.162;4.500;2023-01-28T04:35:20;9.65;;;4.72;;
72684;SDS011;61365;52.162;4.500;2023-01-28T04:37:46;10.63;;;4.93;;
72684;SDS011;61365;52.162;4.500;2023-01-28T04:40:12;9.93;;;4.60;;
72684;SDS011;61365;52.162;4.500;2023-01-28T04:42:39;7.15;;;4.07;;
72684;SDS011;61365;52.162;4.500;2023-01-28T04:45:05;9.60;;;4.72;;
72684;SDS011;61365;52.162;4.500;2023-01-28T04:47:33;10.80;;;4.20;;
72684;SDS011;61365;52.162;4.500;2023-01-28T04:49:59;6.50;;;4.55;;
72684;SDS011;61365;52.162;4.500;2023-01-28T04:52:25;8.57;;;5.10;;
72684;SDS011;61365;52.162;4.500;2023-01-28T04:54:52;7.47;;;5.15;;
72684;SDS011;61365;52.162;4.500;2023-01-28T04:57:18;8.07;;;5.43;;
72684;SDS011;61365;52.162;4.500;2023-01-28T04:59:44;10.60;;;5.03;;
72684;SDS011;61365;52.162;4.500;2023-01-28T05:02:11;8.77;;;5.07;;
72684;SDS011;61365;52.162;4.500;2023-01-28T05:04:37;7.57;;;4.85;;
72684;SDS011;61365;52.162;4.500;2023-01-28T05:07:03;7.07;;;4.72;;
72684;SDS011;61365;52.162;4.500;2023-01-28T05:09:30;9.07;;;5.70;;
72684;SDS011;61365;52.162;4.500;2023-01-28T05:11:56;6.72;;;4.57;;
72684;SDS011;61365;52.162;4.500;2023-01-28T05:14:22;7.47;;;4.93;;
72684;SDS011;61365;52.162;4.500;2023-01-28T05:16:49;7.90;;;5.03;;
72684;SDS011;61365;52.162;4.500;2023-01-28T05:19:15;8.23;;;5.32;;
72684;SDS011;61365;52.162;4.500;2023-01-28T05:21:42;7.68;;;5.20;;
72684;SDS011;61365;52.162;4.500;2023-01-28T05:24:08;8.27;;;4.85;;
72684;SDS011;61365;52.162;4.500;2023-01-28T05:26:34;7.22;;;5.40;;
72684;SDS011;61365;52.162;4.500;2023-01-28T05:29:02;8.77;;;5.25;;
72684;SDS011;61365;52.162;4.500;2023-01-28T05:31:28;8.63;;;4.95;;
72684;SDS011;61365;52.162;4.500;2023-01-28T05:33:55;8.82;;;5.07;;
72684;SDS011;61365;52.162;4.500;2023-01-28T05:36:21;9.50;;;5.40;;
72684;SDS011;61365;52.162;4.500;2023-01-28T05:38:48;11.02;;;5.30;;
72684;SDS011;61365;52.162;4.500;2023-01-28T05:41:14;8.07;;;5.57;;
72684;SDS011;61365;52.162;4.500;2023-01-28T05:43:40;9.18;;;5.72;;
72684;SDS011;61365;52.162;4.500;2023-01-28T05:46:07;10.57;;;5.65;;
72684;SDS011;61365;52.162;4.500;2023-01-28T05:48:33;8.50;;;5.82;;
72684;SDS011;61365;52.162;4.500;2023-01-28T05:50:59;7.97;;;5.38;;
72684;SDS011;61365;52.162;4.500;2023-01-28T05:53:26;9.88;;;5.68;;
72684;SDS011;61365;52.162;4.500;2023-01-28T05:55:52;6.75;;;4.82;;
72684;SDS011;61365;52.162;4.500;2023-01-28T05:58:19;10.13;;;5.53;;
72684;SDS011;61365;52.162;4.500;2023-01-28T06:00:46;7.63;;;5.10;;
72684;SDS011;61365;52.162;4.500;2023-01-28T06:03:12;7.45;;;5.32;;
72684;SDS011;61365;52.162;4.500;2023-01-28T06:05:39;9.52;;;5.00;;
72684;SDS011;61365;52.162;4.500;2023-01-28T06:08:05;8.13;;;5.75;;
72684;SDS011;61365;52.162;4.500;2023-01-28T06:10:32;10.93;;;5.25;;
72684;SDS011;61365;52.162;4.500;2023-01-28T06:12:58;8.27;;;5.68;;
72684;SDS011;61365;52.162;4.500;2023-01-28T06:15:25;8.23;;;5.50;;
72684;SDS011;61365;52.162;4.500;2023-01-28T06:17:51;7.15;;;4.80;;
72684;SDS011;61365;52.162;4.500;2023-01-28T06:20:17;8.52;;;5.63;;
72684;SDS011;61365;52.162;4.500;2023-01-28T06:22:44;10.68;;;6.40;;
72684;SDS011;61365;52.162;4.500;2023-01-28T06:25:10;7.82;;;5.43;;
72684;SDS011;61365;52.162;4.500;2023-01-28T06:27:36;9.77;;;5.78;;
72684;SDS011;61365;52.162;4.500;2023-01-28T06:30:03;8.57;;;5.50;;
72684;SDS011;61365;52.162;4.500;2023-01-28T06:32:30;8.60;;;5.80;;
72684;SDS011;61365;52.162;4.500;2023-01-28T06:34:58;8.93;;;5.57;;
72684;SDS011;61365;52.162;4.500;2023-01-28T06:37:24;7.50;;;5.75;;
72684;SDS011;61365;52.162;4.500;2023-01-28T06:39:51;6.75;;;4.72;;
72684;SDS011;61365;52.162;4.500;2023-01-28T06:42:17;10.93;;;6.00;;
72684;SDS011;61365;52.162;4.500;2023-01-28T06:44:43;8.70;;;5.75;;
72684;SDS011;61365;52.162;4.500;2023-01-28T06:47:10;9.05;;;6.18;;
72684;SDS011;61365;52.162;4.500;2023-01-28T06:49:36;9.20;;;6.47;;
72684;SDS011;61365;52.162;4.500;2023-01-28T06:52:03;8.13;;;5.43;;
72684;SDS011;61365;52.162;4.500;2023-01-28T06:54:29;9.95;;;5.47;;
72684;SDS011;61365;52.162;4.500;2023-01-28T06:56:55;8.68;;;5.47;;
72684;SDS011;61365;52.162;4.500;2023-01-28T06:59:22;11.43;;;6.07;;
72684;SDS011;61365;52.162;4.500;2023-01-28T07:01:48;9.50;;;5.75;;
72684;SDS011;61365;52.162;4.500;2023-01-28T07:04:15;8.95;;;6.05;;
72684;SDS011;61365;52.162;4.500;2023-01-28T07:06:41;9.23;;;6.18;;
72684;SDS011;61365;52.162;4.500;2023-01-28T07:09:08;8.93;;;6.30;;
72684;SDS011;61365;52.162;4.500;2023-01-28T07:11:34;8.70;;;5.20;;
72684;SDS011;61365;52.162;4.500;2023-01-28T07:14:00;9.60;;;5.93;;
72684;SDS011;61365;52.162;4.500;2023-01-28T07:16:27;8.50;;;6.13;;
72684;SDS011;61365;52.162;4.500;2023-01-28T07:18:53;8.80;;;5.88;;
72684;SDS011;61365;52.162;4.500;2023-01-28T07:21:19;8.93;;;5.40;;
72684;SDS011;61365;52.162;4.500;2023-01-28T07:23:47;9.50;;;5.55;;
72684;SDS011;61365;52.162;4.500;2023-01-28T07:26:13;6.30;;;4.53;;
72684;SDS011;61365;52.162;4.500;2023-01-28T07:28:40;8.70;;;5.63;;
72684;SDS011;61365;52.162;4.500;2023-01-28T07:31:06;9.25;;;5.43;;
72684;SDS011;61365;52.162;4.500;2023-01-28T07:33:33;12.20;;;6.25;;
72684;SDS011;61365;52.162;4.500;2023-01-28T07:36:00;10.43;;;6.20;;
72684;SDS011;61365;52.162;4.500;2023-01-28T07:38:26;8.48;;;5.55;;
72684;SDS011;61365;52.162;4.500;2023-01-28T07:40:53;9.18;;;5.95;;
72684;SDS011;61365;52.162;4.500;2023-01-28T07:43:19;9.02;;;5.75;;
72684;SDS011;61365;52.162;4.500;2023-01-28T07:45:46;11.32;;;6.93;;
72684;SDS011;61365;52.162;4.500;2023-01-28T07:48:13;12.88;;;6.90;;
72684;SDS011;61365;52.162;4.500;2023-01-28T07:50:39;12.10;;;6.72;;
72684;SDS011;61365;52.162;4.500;2023-01-28T07:53:07;10.30;;;7.13;;
72684;SDS011;61365;52.162;4.500;2023-01-28T07:55:37;9.82;;;6.57;;
72684;SDS011;61365;52.162;4.500;2023-01-28T07:58:04;11.75;;;6.50;;
72684;SDS011;61365;52.162;4.500;2023-01-28T08:00:36;11.48;;;6.78;;
72684;SDS011;61365;52.162;4.500;2023-01-28T08:03:05;10.25;;;6.40;;
72684;SDS011;61365;52.162;4.500;2023-01-28T08:05:40;12.95;;;7.32;;
72684;SDS011;61365;52.162;4.500;2023-01-28T08:08:14;11.30;;;6.80;;
72684;SDS011;61365;52.162;4.500;2023-01-28T08:10:40;11.80;;;7.07;;
72684;SDS011;61365;52.162;4.500;2023-01-28T08:13:08;11.90;;;7.90;;
72684;SDS011;61365;52.162;4.500;2023-01-28T08:15:37;12.38;;;7.55;;
72684;SDS011;61365;52.162;4.500;2023-01-28T08:18:03;12.32;;;7.57;;
72684;SDS011;61365;52.162;4.500;2023-01-28T08:20:32;11.75;;;7.65;;
72684;SDS011;61365;52.162;4.500;2023-01-28T08:23:06;10.25;;;7.05;;
72684;SDS011;61365;52.162;4.500;2023-01-28T08:25:43;15.10;;;7.95;;
72684;SDS011;61365;52.162;4.500;2023-01-28T08:28:11;9.80;;;6.50;;
72684;SDS011;61365;52.162;4.500;2023-01-28T08:30:40;12.48;;;7.13;;
72684;SDS011;61365;52.162;4.500;2023-01-28T08:33:09;11.20;;;7.25;;
72684;SDS011;61365;52.162;4.500;2023-01-28T08:35:37;10.80;;;7.13;;
72684;SDS011;61365;52.162;4.500;2023-01-28T08:38:04;11.23;;;7.47;;
72684;SDS011;61365;52.162;4.500;2023-01-28T08:40:33;13.50;;;7.43;;
72684;SDS011;61365;52.162;4.500;2023-01-28T08:43:00;11.40;;;7.40;;
72684;SDS011;61365;52.162;4.500;2023-01-28T08:45:27;9.60;;;6.53;;
72684;SDS011;61365;52.162;4.500;2023-01-28T08:47:55;10.77;;;6.72;;
72684;SDS011;61365;52.162;4.500;2023-01-28T08:50:30;10.95;;;6.80;;
72684;SDS011;61365;52.162;4.500;2023-01-28T08:53:03;7.88;;;6.05;;
72684;SDS011;61365;52.162;4.500;2023-01-28T08:55:41;11.35;;;7.10;;
72684;SDS011;61365;52.162;4.500;2023-01-28T08:58:09;11.55;;;6.78;;
72684;SDS011;61365;52.162;4.500;2023-01-28T09:00:39;10.05;;;6.70;;
72684;SDS011;61365;52.162;4.500;2023-01-28T09:03:06;10.07;;;6.90;;
72684;SDS011;61365;52.162;4.500;2023-01-28T09:05:33;9.80;;;6.72;;
72684;SDS011;61365;52.162;4.500;2023-01-28T09:08:02;11.57;;;6.88;;
72684;SDS011;61365;52.162;4.500;2023-01-28T09:10:35;11.80;;;6.93;;
72684;SDS011;61365;52.162;4.500;2023-01-28T09:13:09;9.18;;;6.60;;
72684;SDS011;61365;52.162;4.500;2023-01-28T09:15:41;12.82;;;8.50;;
72684;SDS011;61365;52.162;4.500;2023-01-28T09:18:08;11.68;;;7.20;;
72684;SDS011;61365;52.162;4.500;2023-01-28T09:20:35;11.70;;;7.63;;
72684;SDS011;61365;52.162;4.500;2023-01-28T09:23:03;11.27;;;7.53;;
72684;SDS011;61365;52.162;4.500;2023-01-28T09:25:29;14.23;;;8.32;;
72684;SDS011;61365;52.162;4.500;2023-01-28T09:27:59;12.52;;;8.07;;
72684;SDS011;61365;52.162;4.500;2023-01-28T09:30:25;12.43;;;8.48;;
72684;SDS011;61365;52.162;4.500;2023-01-28T09:32:53;12.45;;;7.57;;
72684;SDS011;61365;52.162;4.500;2023-01-28T09:35:23;12.20;;;7.32;;
72684;SDS011;61365;52.162;4.500;2023-01-28T09:37:50;10.80;;;6.60;;
72684;SDS011;61365;52.162;4.500;2023-01-28T09:40:20;11.30;;;7.35;;
72684;SDS011;61365;52.162;4.500;2023-01-28T09:43:00;10.32;;;7.40;;
72684;SDS011;61365;52.162;4.500;2023-01-28T09:45:57;14.07;;;7.25;;
72684;SDS011;61365;52.162;4.500;2023-01-28T09:48:32;11.45;;;6.97;;
72684;SDS011;61365;52.162;4.500;2023-01-28T09:51:10;8.55;;;6.07;;
72684;SDS011;61365;52.162;4.500;2023-01-28T09:57:24;10.57;;;6.40;;
72684;SDS011;61365;52.162;4.500;2023-01-28T10:00:01;8.60;;;5.95;;
72684;SDS011;61365;52.162;4.500;2023-01-28T10:03:31;12.43;;;6.25;;
72684;SDS011;61365;52.162;4.500;2023-01-28T10:06:09;9.25;;;6.00;;
72684;SDS011;61365;52.162;4.500;2023-01-28T10:12:20;12.38;;;6.90;;
72684;SDS011;61365;52.162;4.500;2023-01-28T10:18:07;10.05;;;6.30;;
72684;SDS011;61365;52.162;4.500;2023-01-28T10:20:37;10.37;;;6.07;;
72684;SDS011;61365;52.162;4.500;2023-01-28T10:23:17;12.52;;;6.72;;
72684;SDS011;61365;52.162;4.500;2023-01-28T10:25:47;10.65;;;7.45;;
72684;SDS011;61365;52.162;4.500;2023-01-28T10:28:18;10.95;;;6.63;;
72684;SDS011;61365;52.162;4.500;2023-01-28T10:30:50;10.32;;;6.45;;
72684;SDS011;61365;52.162;4.500;2023-01-28T10:33:19;11.05;;;7.13;;
72684;SDS011;61365;52.162;4.500;2023-01-28T10:36:00;12.98;;;6.13;;
72684;SDS011;61365;52.162;4.500;2023-01-28T10:38:26;9.40;;;6.25;;
72684;SDS011;61365;52.162;4.500;2023-01-28T10:40:57;10.23;;;6.50;;
72684;SDS011;61365;52.162;4.500;2023-01-28T10:43:34;12.55;;;6.70;;
72684;SDS011;61365;52.162;4.500;2023-01-28T10:46:16;8.15;;;5.70;;
72684;SDS011;61365;52.162;4.500;2023-01-28T10:51:43;9.07;;;5.20;;
72684;SDS011;61365;52.162;4.500;2023-01-28T10:54:20;9.60;;;5.68;;
72684;SDS011;61365;52.162;4.500;2023-01-28T10:56:51;12.00;;;5.80;;
72684;SDS011;61365;52.162;4.500;2023-01-28T10:59:33;10.18;;;5.55;;
72684;SDS011;61365;52.162;4.500;2023-01-28T11:02:23;10.48;;;6.07;;
72684;SDS011;61365;52.162;4.500;2023-01-28T11:05:48;10.32;;;6.05;;
72684;SDS011;61365;52.162;4.500;2023-01-28T11:08:02;7.95;;;5.03;;
72684;SDS011;61365;52.162;4.500;2023-01-28T11:10:39;10.45;;;6.38;;
72684;SDS011;61365;52.162;4.500;2023-01-28T11:13:17;9.02;;;5.78;;
72684;SDS011;61365;52.162;4.500;2023-01-28T11:18:31;10.80;;;6.10;;
72684;SDS011;61365;52.162;4.500;2023-01-28T11:21:06;12.35;;;6.63;;
72684;SDS011;61365;52.162;4.500;2023-01-28T11:23:53;11.43;;;6.35;;
72684;SDS011;61365;52.162;4.500;2023-01-28T11:26:27;9.75;;;6.10;;
72684;SDS011;61365;52.162;4.500;2023-01-28T11:28:58;10.38;;;6.35;;
72684;SDS011;61365;52.162;4.500;2023-01-28T11:31:25;9.85;;;6.25;;
72684;SDS011;61365;52.162;4.500;2023-01-28T11:36:25;9.68;;;6.00;;
72684;SDS011;61365;52.162;4.500;2023-01-28T11:39:00;9.15;;;5.45;;
72684;SDS011;61365;52.162;4.500;2023-01-28T11:41:42;7.97;;;5.40;;
72684;SDS011;61365;52.162;4.500;2023-01-28T12:18:44;7.15;;;4.72;;
72684;SDS011;61365;52.162;4.500;2023-01-28T12:30:02;7.53;;;5.03;;
72684;SDS011;61365;52.162;4.500;2023-01-28T12:42:11;8.70;;;5.63;;
72684;SDS011;61365;52.162;4.500;2023-01-28T12:44:55;8.15;;;5.32;;
72684;SDS011;61365;52.162;4.500;2023-01-28T12:47:38;8.40;;;5.25;;
72684;SDS011;61365;52.162;4.500;2023-01-28T12:50:19;8.30;;;4.63;;
72684;SDS011;61365;52.162;4.500;2023-01-28T12:53:37;8.05;;;4.95;;
72684;SDS011;61365;52.162;4.500;2023-01-28T12:56:36;8.98;;;5.55;;
72684;SDS011;61365;52.162;4.500;2023-01-28T12:59:16;8.65;;;4.65;;
72684;SDS011;61365;52.162;4.500;2023-01-28T13:07:47;9.13;;;4.20;;
72684;SDS011;61365;52.162;4.500;2023-01-28T13:13:26;8.57;;;4.82;;
72684;SDS011;61365;52.162;4.500;2023-01-28T13:15:58;8.98;;;4.43;;
72684;SDS011;61365;52.162;4.500;2023-01-28T13:18:41;9.65;;;4.88;;
72684;SDS011;61365;52.162;4.500;2023-01-28T13:26:41;7.35;;;4.50;;
72684;SDS011;61365;52.162;4.500;2023-01-28T13:32:01;11.40;;;4.10;;
72684;SDS011;61365;52.162;4.500;2023-01-28T13:34:57;9.63;;;5.10;;
72684;SDS011;61365;52.162;4.500;2023-01-28T13:37:29;10.70;;;4.22;;
72684;SDS011;61365;52.162;4.500;2023-01-28T13:40:07;8.38;;;4.70;;
72684;SDS011;61365;52.162;4.500;2023-01-28T13:42:37;8.75;;;4.15;;
72684;SDS011;61365;52.162;4.500;2023-01-28T13:47:45;7.00;;;4.55;;
72684;SDS011;61365;52.162;4.500;2023-01-28T13:50:20;8.07;;;4.10;;
72684;SDS011;61365;52.162;4.500;2023-01-28T13:55:33;8.18;;;4.90;;
72684;SDS011;61365;52.162;4.500;2023-01-28T14:09:46;6.53;;;3.97;;
72684;SDS011;61365;52.162;4.500;2023-01-28T14:18:31;7.13;;;2.97;;
72684;SDS011;61365;52.162;4.500;2023-01-28T14:21:08;5.05;;;2.80;;
72684;SDS011;61365;52.162;4.500;2023-01-28T14:23:46;5.90;;;2.70;;
72684;SDS011;61365;52.162;4.500;2023-01-28T14:29:26;7.15;;;2.92;;
72684;SDS011;61365;52.162;4.500;2023-01-28T14:32:16;5.40;;;2.55;;
72684;SDS011;61365;52.162;4.500;2023-01-28T14:34:47;10.00;;;3.20;;
72684;SDS011;61365;52.162;4.500;2023-01-28T14:37:14;6.55;;;2.53;;
72684;SDS011;61365;52.162;4.500;2023-01-28T14:39:57;5.32;;;2.35;;
72684;SDS011;61365;52.162;4.500;2023-01-28T14:42:34;4.10;;;2.50;;
72684;SDS011;61365;52.162;4.500;2023-01-28T14:59:32;5.35;;;2.75;;
72684;SDS011;61365;52.162;4.500;2023-01-28T15:02:31;7.68;;;3.08;;
72684;SDS011;61365;52.162;4.500;2023-01-28T15:05:07;10.73;;;2.30;;
72684;SDS011;61365;52.162;4.500;2023-01-28T15:07:47;7.10;;;2.40;;
72684;SDS011;61365;52.162;4.500;2023-01-28T15:12:55;3.47;;;1.83;;
72684;SDS011;61365;52.162;4.500;2023-01-28T15:15:32;4.30;;;1.85;;
72684;SDS011;61365;52.162;4.500;2023-01-28T15:18:06;2.65;;;1.70;;
72684;SDS011;61365;52.162;4.500;2023-01-28T15:20:43;5.15;;;2.20;;
72684;SDS011;61365;52.162;4.500;2023-01-28T15:23:15;4.72;;;2.13;;
72684;SDS011;61365;52.162;4.500;2023-01-28T15:28:52;6.00;;;1.95;;
72684;SDS011;61365;52.162;4.500;2023-01-28T15:31:22;5.80;;;2.20;;
72684;SDS011;61365;52.162;4.500;2023-01-28T15:33:55;4.45;;;1.83;;
72684;SDS011;61365;52.162;4.500;2023-01-28T15:36:39;3.30;;;1.92;;
72684;SDS011;61365;52.162;4.500;2023-01-28T15:39:17;5.97;;;1.85;;
72684;SDS011;61365;52.162;4.500;2023-01-28T15:41:48;4.32;;;1.77;;
72684;SDS011;61365;52.162;4.500;2023-01-28T15:44:42;6.03;;;1.70;;
72684;SDS011;61365;52.162;4.500;2023-01-28T15:47:15;4.57;;;2.20;;
72684;SDS011;61365;52.162;4.500;2023-01-28T15:49:49;4.40;;;1.90;;
72684;SDS011;61365;52.162;4.500;2023-01-28T15:52:20;3.15;;;1.60;;
72684;SDS011;61365;52.162;4.500;2023-01-28T15:54:58;6.75;;;2.20;;
72684;SDS011;61365;52.162;4.500;2023-01-28T15:57:26;5.00;;;1.88;;
72684;SDS011;61365;52.162;4.500;2023-01-28T16:02:32;6.88;;;2.75;;
72684;SDS011;61365;52.162;4.500;2023-01-28T16:05:00;5.60;;;2.53;;
72684;SDS011;61365;52.162;4.500;2023-01-28T16:07:29;7.72;;;2.45;;
72684;SDS011;61365;52.162;4.500;2023-01-28T16:09:59;5.38;;;2.45;;
72684;SDS011;61365;52.162;4.500;2023-01-28T16:12:31;5.88;;;3.00;;
72684;SDS011;61365;52.162;4.500;2023-01-28T16:14:58;3.47;;;2.20;;
72684;SDS011;61365;52.162;4.500;2023-01-28T16:17:28;14.90;;;2.80;;
72684;SDS011;61365;52.162;4.500;2023-01-28T16:20:03;5.60;;;2.67;;
72684;SDS011;61365;52.162;4.500;2023-01-28T16:22:35;6.25;;;2.50;;
72684;SDS011;61365;52.162;4.500;2023-01-28T16:25:23;6.32;;;2.92;;
72684;SDS011;61365;52.162;4.500;2023-01-28T16:27:59;7.07;;;2.50;;
72684;SDS011;61365;52.162;4.500;2023-01-28T16:30:28;6.13;;;2.58;;
72684;SDS011;61365;52.162;4.500;2023-01-28T16:32:55;7.10;;;2.58;;
72684;SDS011;61365;52.162;4.500;2023-01-28T16:35:27;4.18;;;2.25;;
72684;SDS011;61365;52.162;4.500;2023-01-28T16:37:55;5.10;;;2.10;;
72684;SDS011;61365;52.162;4.500;2023-01-28T16:40:22;4.85;;;2.70;;
72684;SDS011;61365;52.162;4.500;2023-01-28T16:42:52;6.40;;;2.97;;
72684;SDS011;61365;52.162;4.500;2023-01-28T16:45:21;7.68;;;3.10;;
72684;SDS011;61365;52.162;4.500;2023-01-28T16:47:50;5.90;;;2.10;;
72684;SDS011;61365;52.162;4.500;2023-01-28T16:50:18;6.60;;;2.63;;
72684;SDS011;61365;52.162;4.500;2023-01-28T16:52:47;7.13;;;2.08;;
72684;SDS011;61365;52.162;4.500;2023-01-28T16:55:19;6.88;;;2.13;;
72684;SDS011;61365;52.162;4.500;2023-01-28T16:57:48;11.88;;;2.50;;
72684;SDS011;61365;52.162;4.500;2023-01-28T17:00:21;6.35;;;2.40;;
72684;SDS011;61365;52.162;4.500;2023-01-28T17:02:52;7.78;;;2.78;;
72684;SDS011;61365;52.162;4.500;2023-01-28T17:05:20;8.43;;;2.92;;
72684;SDS011;61365;52.162;4.500;2023-01-28T17:07:48;7.53;;;3.22;;
72684;SDS011;61365;52.162;4.500;2023-01-28T17:10:16;5.78;;;2.45;;
72684;SDS011;61365;52.162;4.500;2023-01-28T17:12:43;5.80;;;2.95;;
72684;SDS011;61365;52.162;4.500;2023-01-28T17:15:12;8.85;;;2.67;;
72684;SDS011;61365;52.162;4.500;2023-01-28T17:17:38;7.18;;;2.70;;
72684;SDS011;61365;52.162;4.500;2023-01-28T17:20:07;6.68;;;2.60;;
72684;SDS011;61365;52.162;4.500;2023-01-28T17:22:35;7.68;;;3.10;;
72684;SDS011;61365;52.162;4.500;2023-01-28T17:25:01;6.75;;;3.35;;
72684;SDS011;61365;52.162;4.500;2023-01-28T17:27:27;6.88;;;3.20;;
72684;SDS011;61365;52.162;4.500;2023-01-28T17:29:54;8.93;;;3.47;;
72684;SDS011;61365;52.162;4.500;2023-01-28T17:32:20;9.63;;;3.67;;
72684;SDS011;61365;52.162;4.500;2023-01-28T17:34:46;6.97;;;3.53;;
72684;SDS011;61365;52.162;4.500;2023-01-28T17:37:13;8.05;;;2.92;;
72684;SDS011;61365;52.162;4.500;2023-01-28T17:39:39;7.03;;;3.22;;
72684;SDS011;61365;52.162;4.500;2023-01-28T17:42:06;9.30;;;3.80;;
72684;SDS011;61365;52.162;4.500;2023-01-28T17:44:32;18.17;;;4.07;;
72684;SDS011;61365;52.162;4.500;2023-01-28T17:46:58;8.52;;;3.05;;
72684;SDS011;61365;52.162;4.500;2023-01-28T17:49:25;8.52;;;3.58;;
72684;SDS011;61365;52.162;4.500;2023-01-28T17:51:51;8.77;;;3.35;;
72684;SDS011;61365;52.162;4.500;2023-01-28T17:54:18;8.35;;;3.22;;